Time;durP1;ratioP1;P1;durP2;ratioP2;P2;SDS_P1;SDS_P2;PMS_P1;PMS_P2;Temp;Humidity;BMP_temperature;BMP_pressure;BME280_temperature;BME280_humidity;BME280_pressure;Samples;Min_cycle;Max_cycle;Signal;HPM_P1;HPM_P2
2023/03/06 00:01:57;;;;;;;26.37;15.85;;;10.20;80.30;;;;;;10945328;32;20321;-71
2023/03/06 00:07:59;;;;;;;17.70;12.95;;;10.20;80.20;;;;;;10944597;32;20325;-71
2023/03/06 00:14:02;;;;;;;25.17;18.20;;;10.20;80.10;;;;;;10944943;32;20053;-71
2023/03/06 00:20:06;;;;;;;25.20;16.15;;;10.20;80.20;;;;;;10940392;27;20063;-71
2023/03/06 00:26:09;;;;;;;22.62;14.52;;;10.20;80.10;;;;;;10787863;33;20032;-71
2023/03/06 00:32:11;;;;;;;26.25;20.30;;;10.20;80.10;;;;;;10788798;33;20025;-71
2023/03/06 00:38:47;;;;;;;26.55;18.08;;;10.20;80.20;;;;;;10713250;32;20501;-72
2023/03/06 00:44:49;;;;;;;22.55;14.32;;;10.20;80.30;;;;;;10699584;33;20041;-71
2023/03/06 00:50:51;;;;;;;17.25;11.07;;;10.20;80.30;;;;;;10708714;33;20043;-71
2023/03/06 00:56:53;;;;;;;16.10;10.90;;;10.20;80.10;;;;;;10712492;33;20087;-71
2023/03/06 01:02:55;;;;;;;21.83;15.52;;;10.20;80.20;;;;;;10712311;33;20029;-71
2023/03/06 01:08:57;;;;;;;19.27;13.93;;;10.20;80.20;;;;;;10711909;33;20032;-71
2023/03/06 01:15:00;;;;;;;21.48;12.68;;;10.20;80.10;;;;;;10761830;33;20028;-71
2023/03/06 01:21:04;;;;;;;26.40;19.12;;;10.20;80.20;;;;;;10783945;32;20067;-71
2023/03/06 01:27:06;;;;;;;18.37;10.90;;;10.20;80.40;;;;;;10788116;33;20391;-71
2023/03/06 01:33:08;;;;;;;31.33;22.08;;;10.20;80.30;;;;;;10787516;32;20032;-72
2023/03/06 01:39:10;;;;;;;23.67;15.40;;;10.10;80.40;;;;;;10794548;33;20350;-71
2023/03/06 01:45:12;;;;;;;37.70;28.42;;;10.00;80.60;;;;;;10794251;33;20342;-71
2023/03/06 01:51:15;;;;;;;32.83;17.73;;;10.00;80.60;;;;;;10792133;32;20048;-71
2023/03/06 01:57:20;;;;;;;29.20;22.92;;;9.90;80.70;;;;;;10794994;33;20024;-71
2023/03/06 02:03:25;;;;;;;28.15;14.98;;;10.00;80.80;;;;;;10794389;33;20422;-71
2023/03/06 02:09:29;;;;;;;24.02;17.12;;;10.00;80.70;;;;;;10792715;33;20039;-71
2023/03/06 02:15:31;;;;;;;30.65;23.65;;;10.00;80.70;;;;;;10791302;33;20040;-71
2023/03/06 02:21:36;;;;;;;22.75;12.85;;;10.00;80.90;;;;;;10790517;33;20060;-71
2023/03/06 02:27:38;;;;;;;17.02;12.27;;;10.00;81.00;;;;;;10792503;33;20012;-71
2023/03/06 02:33:40;;;;;;;22.48;17.80;;;10.00;81.10;;;;;;10791150;33;20062;-72
2023/03/06 02:39:47;;;;;;;27.00;19.90;;;10.00;81.10;;;;;;10793092;33;20021;-71
2023/03/06 02:45:50;;;;;;;27.30;19.08;;;10.20;81.40;;;;;;10792193;33;20425;-71
2023/03/06 02:51:52;;;;;;;21.50;16.08;;;10.50;81.80;;;;;;10792044;33;20406;-71
2023/03/06 02:57:54;;;;;;;20.55;13.52;;;10.70;81.30;;;;;;10792274;33;20428;-71
2023/03/06 03:03:57;;;;;;;23.50;15.85;;;10.80;81.10;;;;;;10791472;33;20025;-71
2023/03/06 03:10:00;;;;;;;24.98;18.90;;;11.00;81.70;;;;;;10792114;33;20072;-71
2023/03/06 03:16:05;;;;;;;28.98;21.10;;;11.10;81.80;;;;;;10790286;33;20051;-72
2023/03/06 03:22:08;;;;;;;27.17;18.87;;;11.10;81.80;;;;;;10791615;33;20066;-72
2023/03/06 03:28:10;;;;;;;31.42;24.92;;;11.20;82.20;;;;;;10791340;33;20060;-71
2023/03/06 03:34:12;;;;;;;27.55;18.75;;;11.20;81.90;;;;;;10787144;33;20322;-72
2023/03/06 03:40:15;;;;;;;24.17;18.60;;;11.30;82.20;;;;;;10790620;33;20428;-72
2023/03/06 03:46:18;;;;;;;22.25;15.38;;;11.30;82.70;;;;;;10790856;33;20350;-72
2023/03/06 03:52:21;;;;;;;22.33;15.13;;;11.30;82.30;;;;;;10790516;33;20402;-71
2023/03/06 03:58:23;;;;;;;29.60;20.15;;;11.30;82.00;;;;;;10789105;33;20024;-71
2023/03/06 04:04:25;;;;;;;26.85;20.75;;;11.40;82.00;;;;;;10790889;33;20024;-71
2023/03/06 04:10:28;;;;;;;25.77;21.00;;;11.20;81.70;;;;;;10789561;33;20051;-71
2023/03/06 04:16:30;;;;;;;27.70;18.85;;;11.20;81.50;;;;;;10789659;33;20437;-71
2023/03/06 04:22:32;;;;;;;29.92;24.10;;;11.30;81.90;;;;;;10789091;33;20028;-72
2023/03/06 04:28:35;;;;;;;25.58;19.17;;;11.30;81.50;;;;;;10788907;33;20036;-71
2023/03/06 04:34:37;;;;;;;30.33;25.85;;;11.40;81.60;;;;;;10789797;33;20058;-71
2023/03/06 04:40:39;;;;;;;31.67;24.37;;;11.50;81.70;;;;;;10789342;33;20330;-71
2023/03/06 04:46:41;;;;;;;28.95;21.42;;;11.60;81.40;;;;;;10788631;33;20047;-71
2023/03/06 04:52:43;;;;;;;21.95;14.63;;;11.50;81.00;;;;;;10789642;33;20021;-71
2023/03/06 04:58:45;;;;;;;15.70;12.10;;;11.40;80.80;;;;;;10789366;33;20039;-71
2023/03/06 05:04:47;;;;;;;25.02;17.45;;;11.40;80.60;;;;;;10788385;33;20055;-71
2023/03/06 05:10:56;;;;;;;20.88;14.82;;;11.30;80.50;;;;;;10788371;33;20297;-71
2023/03/06 05:16:58;;;;;;;18.83;13.25;;;11.40;80.60;;;;;;10787754;33;20020;-71
2023/03/06 05:22:59;;;;;;;32.28;25.52;;;11.60;81.80;;;;;;10787634;33;20032;-71
2023/03/06 05:29:02;;;;;;;39.60;29.87;;;11.70;81.70;;;;;;10786889;33;20028;-71
2023/03/06 05:35:04;;;;;;;28.65;21.58;;;11.70;81.20;;;;;;10787039;33;20043;-71
2023/03/06 05:41:11;;;;;;;21.10;17.98;;;11.70;80.90;;;;;;10787938;33;20045;-71
2023/03/06 05:47:13;;;;;;;20.00;14.20;;;11.70;81.10;;;;;;10782153;33;20040;-71
2023/03/06 05:53:15;;;;;;;21.20;15.02;;;11.90;81.70;;;;;;10787375;33;20055;-72
2023/03/06 05:59:18;;;;;;;20.08;15.88;;;11.90;81.80;;;;;;10787216;33;20020;-71
2023/03/06 06:05:20;;;;;;;21.70;15.82;;;12.00;81.80;;;;;;10785785;33;20055;-72
2023/03/06 06:11:22;;;;;;;25.58;16.90;;;12.00;81.30;;;;;;10782469;32;20059;-72
2023/03/06 06:17:24;;;;;;;15.50;13.18;;;11.80;80.90;;;;;;10786914;33;20032;-71
2023/03/06 06:23:26;;;;;;;30.30;18.65;;;11.20;81.40;;;;;;10791239;33;20406;-71
2023/03/06 06:29:28;;;;;;;28.27;16.90;;;10.80;82.40;;;;;;10791425;33;20055;-72
2023/03/06 06:35:35;;;;;;;19.02;14.52;;;11.20;82.40;;;;;;10792276;33;20021;-72
2023/03/06 06:41:38;;;;;;;26.85;16.55;;;11.80;82.50;;;;;;10792275;33;20339;-72
2023/03/06 06:47:40;;;;;;;29.15;22.05;;;12.00;82.00;;;;;;10788553;33;20024;-71
2023/03/06 06:53:43;;;;;;;16.37;12.70;;;12.30;82.20;;;;;;10787615;33;20051;-72
2023/03/06 06:59:45;;;;;;;26.23;16.08;;;12.50;81.80;;;;;;10791339;32;20055;-71
2023/03/06 07:05:54;;;;;;;19.48;15.93;;;12.40;82.40;;;;;;10788237;33;20055;-72
2023/03/06 07:11:57;;;;;;;25.30;17.70;;;12.50;82.40;;;;;;10791839;33;20032;-72
2023/03/06 07:18:00;;;;;;;21.40;17.33;;;12.60;82.60;;;;;;10788959;33;20063;-72
2023/03/06 07:24:02;;;;;;;23.00;17.48;;;12.60;82.90;;;;;;10790175;33;20020;-72
2023/03/06 07:30:05;;;;;;;23.83;18.40;;;12.60;83.60;;;;;;10789388;33;20476;-72
2023/03/06 07:36:09;;;;;;;23.17;18.55;;;12.70;83.70;;;;;;10791134;33;20433;-72
2023/03/06 07:42:13;;;;;;;16.42;13.25;;;12.60;83.80;;;;;;10788030;33;20024;-72
2023/03/06 07:48:20;;;;;;;20.40;15.02;;;12.80;84.20;;;;;;10786364;33;20059;-72
2023/03/06 07:54:22;;;;;;;18.58;15.25;;;12.70;83.80;;;;;;10789965;33;20021;-72
2023/03/06 08:00:24;;;;;;;16.75;11.50;;;12.90;84.20;;;;;;10789587;33;20098;-74
2023/03/06 08:06:27;;;;;;;20.37;17.17;;;12.90;83.70;;;;;;10789744;33;20406;-74
2023/03/06 08:12:29;;;;;;;30.02;19.12;;;12.80;83.90;;;;;;10787530;33;20043;-74
2023/03/06 08:18:31;;;;;;;21.95;15.85;;;12.80;83.90;;;;;;10776120;33;20362;-74
2023/03/06 08:24:34;;;;;;;19.30;15.40;;;12.80;84.20;;;;;;10555624;27;6857581;-74
2023/03/06 08:30:36;;;;;;;12.88;9.45;;;12.80;83.90;;;;;;10750497;33;20140;-74
2023/03/06 08:36:38;;;;;;;14.10;10.45;;;12.60;83.90;;;;;;10751473;33;20021;-74
2023/03/06 08:42:40;;;;;;;18.80;12.27;;;12.60;84.30;;;;;;10751828;33;20017;-75
2023/03/06 08:48:42;;;;;;;22.15;15.20;;;12.50;84.00;;;;;;10751383;33;20028;-75
2023/03/06 08:54:44;;;;;;;20.60;12.10;;;12.30;84.10;;;;;;10751972;33;20389;-75
2023/03/06 09:00:47;;;;;;;27.73;23.05;;;12.50;84.80;;;;;;10752083;33;20429;-74
2023/03/06 09:06:49;;;;;;;22.25;16.45;;;12.80;85.30;;;;;;10751309;33;20013;-75
2023/03/06 09:12:52;;;;;;;20.95;17.02;;;12.70;85.40;;;;;;10751658;33;20040;-74
2023/03/06 09:18:56;;;;;;;21.90;16.80;;;12.70;85.60;;;;;;10750867;33;20078;-74
2023/03/06 09:25:00;;;;;;;21.37;13.62;;;12.80;85.30;;;;;;10782789;33;20024;-74
2023/03/06 09:31:24;;;;;;;23.35;14.00;;;13.00;85.00;;;;;;10787458;33;20331;-74
2023/03/06 09:37:26;;;;;;;24.52;12.18;;;12.90;85.10;;;;;;10788306;33;20407;-73
2023/03/06 09:43:38;;;;;;;16.77;10.95;;;12.70;84.60;;;;;;10771046;33;20032;-74
2023/03/06 09:50:12;;;;;;;13.70;8.25;;;12.70;85.10;;;;;;10787184;33;20017;-74
2023/03/06 09:56:19;;;;;;;10.98;7.78;;;12.50;84.80;;;;;;10676832;33;20447;-74
2023/03/06 10:02:37;;;;;;;15.15;10.20;;;12.40;85.00;;;;;;10679108;33;20021;-74
2023/03/06 10:08:54;;;;;;;9.82;7.25;;;12.60;85.10;;;;;;10677244;33;20025;-74
2023/03/06 10:15:02;;;;;;;16.87;10.82;;;12.80;84.90;;;;;;10679649;33;20045;-73
2023/03/06 10:21:34;;;;;;;17.80;11.10;;;13.10;85.50;;;;;;10678882;32;20048;-74
2023/03/06 10:27:47;;;;;;;16.30;9.27;;;13.50;85.20;;;;;;10687675;33;20025;-74
2023/03/06 10:33:54;;;;;;;14.15;10.05;;;13.60;84.60;;;;;;10752146;33;20143;-74
2023/03/06 10:40:18;;;;;;;14.50;10.55;;;13.60;85.00;;;;;;10752555;33;20025;-74
2023/03/06 10:46:31;;;;;;;20.70;10.07;;;13.60;85.40;;;;;;10752268;33;20033;-74
2023/03/06 10:52:34;;;;;;;14.57;10.38;;;14.00;85.40;;;;;;10740297;33;20020;-72
2023/03/06 10:58:38;;;;;;;27.30;16.62;;;14.20;83.90;;;;;;10751770;33;20350;-73
2023/03/06 11:04:45;;;;;;;18.80;14.93;;;14.20;84.80;;;;;;10778301;33;20105;-73
2023/03/06 11:11:05;;;;;;;19.62;12.35;;;14.50;83.80;;;;;;10788139;33;20052;-74
2023/03/06 11:17:26;;;;;;;20.17;15.48;;;14.30;84.30;;;;;;10778549;33;20326;-74
2023/03/06 11:23:42;;;;;;;32.90;23.17;;;14.30;84.60;;;;;;10777513;33;20058;-74
2023/03/06 11:29:49;;;;;;;14.27;11.77;;;14.60;85.30;;;;;;10788032;33;20082;-74
2023/03/06 11:35:58;;;;;;;15.75;11.40;;;14.60;85.30;;;;;;10790975;33;20335;-72
2023/03/06 11:42:24;;;;;;;20.90;17.12;;;14.50;84.60;;;;;;10775309;33;20024;-73
2023/03/06 11:48:38;;;;;;;18.33;11.93;;;14.20;83.80;;;;;;10790639;33;20016;-73
2023/03/06 11:54:40;;;;;;;20.67;15.38;;;14.00;84.60;;;;;;10789192;33;20020;-73
2023/03/06 12:01:06;;;;;;;22.20;14.93;;;14.00;84.60;;;;;;10785886;33;20037;-73
2023/03/06 12:07:33;;;;;;;12.32;9.50;;;14.10;83.70;;;;;;10790819;33;20054;-73
2023/03/06 12:13:58;;;;;;;22.10;16.15;;;14.50;83.70;;;;;;10786269;33;20059;-73
2023/03/06 12:20:26;;;;;;;18.00;14.05;;;14.70;83.30;;;;;;10750349;32;20029;-73
2023/03/06 12:26:34;;;;;;;24.83;18.12;;;15.00;82.10;;;;;;10752625;33;20017;-74
2023/03/06 12:33:13;;;;;;;19.02;13.45;;;15.10;83.20;;;;;;10752414;33;20016;-73
2023/03/06 12:39:16;;;;;;;33.20;20.45;;;15.10;82.20;;;;;;10752799;33;20048;-73
2023/03/06 12:45:37;;;;;;;14.90;12.80;;;15.10;82.10;;;;;;10743719;33;20100;-73
2023/03/06 12:51:42;;;;;;;33.78;22.90;;;14.80;81.70;;;;;;10788156;33;20012;-73
2023/03/06 12:57:46;;;;;;;29.45;20.58;;;14.80;82.00;;;;;;10775508;33;20016;-73
2023/03/06 13:04:03;;;;;;;21.65;13.95;;;14.60;81.50;;;;;;10775968;33;20025;-73
2023/03/06 13:10:11;;;;;;;25.05;17.70;;;14.50;82.50;;;;;;10788119;33;20071;-73
2023/03/06 13:16:31;;;;;;;36.42;20.65;;;14.70;82.60;;;;;;10787740;33;20024;-73
2023/03/06 13:22:33;;;;;;;24.77;17.35;;;14.90;81.30;;;;;;10787409;33;20043;-73
2023/03/06 13:28:50;;;;;;;32.20;21.90;;;15.20;81.00;;;;;;10788974;33;20056;-73
2023/03/06 13:34:52;;;;;;;19.50;16.87;;;15.30;79.90;;;;;;10796258;33;20020;-73
2023/03/06 13:41:23;;;;;;;20.00;13.13;;;15.50;79.90;;;;;;10796920;33;20024;-73
2023/03/06 13:47:31;;;;;;;24.48;20.00;;;15.90;78.80;;;;;;10784068;33;20067;-73
2023/03/06 13:54:10;;;;;;;34.08;21.77;;;16.10;80.00;;;;;;10800363;33;20016;-72
2023/03/06 14:00:51;;;;;;;31.65;23.95;;;16.20;79.20;;;;;;10798932;33;20051;-73
2023/03/06 14:07:17;;;;;;;34.85;24.10;;;15.80;78.00;;;;;;10801438;33;20147;-73
2023/03/06 14:13:27;;;;;;;17.73;12.93;;;15.50;77.60;;;;;;10798777;33;20375;-73
2023/03/06 14:19:36;;;;;;;25.45;17.98;;;15.30;78.10;;;;;;10798230;33;20070;-73
2023/03/06 14:25:39;;;;;;;21.12;17.05;;;15.40;77.70;;;;;;10798023;33;20028;-73
2023/03/06 14:32:10;;;;;;;21.92;14.10;;;15.40;77.60;;;;;;10798916;33;20047;-73
2023/03/06 14:38:15;;;;;;;20.05;13.00;;;15.40;77.30;;;;;;10800889;33;20032;-73
2023/03/06 14:44:25;;;;;;;15.82;11.73;;;15.70;78.50;;;;;;10791431;33;20028;-72
2023/03/06 14:50:33;;;;;;;17.90;13.80;;;15.90;79.60;;;;;;10791028;33;20024;-72
2023/03/06 14:56:41;;;;;;;20.57;14.47;;;16.00;80.90;;;;;;10791691;33;20060;-72
2023/03/06 15:02:45;;;;;;;13.37;10.83;;;16.00;81.50;;;;;;10791636;33;20394;-72
2023/03/06 15:09:00;;;;;;;19.52;12.70;;;16.00;82.00;;;;;;10787293;33;20020;-72
2023/03/06 15:15:30;;;;;;;20.65;14.70;;;16.10;82.30;;;;;;10792946;33;20051;-72
2023/03/06 15:21:50;;;;;;;17.27;12.07;;;16.20;82.80;;;;;;10784946;33;20209;-72
2023/03/06 15:27:56;;;;;;;19.20;13.90;;;16.10;83.20;;;;;;10789852;33;20303;-72
2023/03/06 15:34:09;;;;;;;22.23;15.68;;;16.00;84.10;;;;;;10788681;33;20051;-72
2023/03/06 15:40:21;;;;;;;21.00;13.80;;;16.10;84.20;;;;;;10791443;33;20020;-72
2023/03/06 15:46:23;;;;;;;21.65;15.70;;;16.40;83.90;;;;;;10774680;33;20032;-72
2023/03/06 15:52:25;;;;;;;24.33;14.07;;;16.20;84.30;;;;;;10790568;33;20024;-72
2023/03/06 15:58:32;;;;;;;19.42;13.65;;;16.00;84.60;;;;;;10764466;33;20036;-72
2023/03/06 16:04:33;;;;;;;21.20;16.23;;;15.90;85.00;;;;;;10790458;33;20337;-72
2023/03/06 16:10:39;;;;;;;22.25;16.98;;;16.00;84.80;;;;;;10789658;33;20094;-72
2023/03/06 16:16:41;;;;;;;20.70;15.23;;;15.90;84.80;;;;;;10776942;33;20020;-72
2023/03/06 16:22:48;;;;;;;16.85;15.07;;;16.00;84.70;;;;;;10793025;27;20031;-72
2023/03/06 16:28:50;;;;;;;15.32;11.70;;;15.80;84.90;;;;;;10776708;33;20067;-72
2023/03/06 16:34:52;;;;;;;22.20;15.73;;;15.80;85.30;;;;;;10772734;33;20044;-72
2023/03/06 16:40:54;;;;;;;22.58;18.67;;;15.80;85.10;;;;;;10775354;33;20032;-72
2023/03/06 16:46:59;;;;;;;24.17;18.52;;;15.70;84.80;;;;;;10775889;32;20043;-70
2023/03/06 16:53:03;;;;;;;21.17;16.17;;;15.40;84.10;;;;;;10789554;33;20387;-70
2023/03/06 16:59:05;;;;;;;22.58;17.15;;;15.20;84.60;;;;;;10788675;33;20047;-71
2023/03/06 17:05:09;;;;;;;21.48;15.98;;;15.10;84.60;;;;;;10762291;32;20040;-70
2023/03/06 17:11:12;;;;;;;22.73;16.75;;;15.20;84.70;;;;;;10771356;33;20448;-71
2023/03/06 17:17:14;;;;;;;16.92;13.60;;;15.20;84.50;;;;;;10785152;33;20032;-71
2023/03/06 17:23:24;;;;;;;28.83;17.30;;;15.20;84.40;;;;;;10774571;33;20095;-71
2023/03/06 17:29:26;;;;;;;24.75;14.80;;;15.10;84.50;;;;;;10774472;33;20036;-71
2023/03/06 17:35:28;;;;;;;27.05;19.20;;;14.90;84.50;;;;;;10773937;33;20036;-71
2023/03/06 17:41:32;;;;;;;22.13;16.55;;;14.70;84.50;;;;;;10771959;32;20050;-71
2023/03/06 17:47:35;;;;;;;25.40;14.35;;;14.60;83.90;;;;;;10769802;32;20040;-70
2023/03/06 17:53:37;;;;;;;19.33;14.10;;;14.60;84.20;;;;;;10786439;32;20429;-71
2023/03/06 17:59:39;;;;;;;18.85;15.93;;;14.70;84.40;;;;;;10783100;33;20020;-71
2023/03/06 18:05:42;;;;;;;19.40;13.25;;;14.70;84.00;;;;;;10786840;33;20055;-71
2023/03/06 18:11:44;;;;;;;14.18;11.10;;;14.70;84.10;;;;;;10787868;33;20008;-71
2023/03/06 18:17:46;;;;;;;15.65;10.82;;;14.80;84.10;;;;;;10778326;33;20032;-72
2023/03/06 18:23:49;;;;;;;19.33;12.90;;;14.80;83.70;;;;;;10779191;33;20058;-72
2023/03/06 18:29:51;;;;;;;16.62;12.20;;;14.80;83.30;;;;;;10793752;33;20020;-73
2023/03/06 18:35:54;;;;;;;14.55;11.82;;;14.80;82.80;;;;;;10777847;33;20410;-73
2023/03/06 18:41:56;;;;;;;17.55;12.37;;;14.70;82.40;;;;;;10791485;33;20086;-73
2023/03/06 18:47:58;;;;;;;16.65;11.70;;;14.70;82.40;;;;;;10790598;33;20051;-73
2023/03/06 18:54:02;;;;;;;15.20;9.40;;;14.70;82.50;;;;;;10792428;33;20421;-73
2023/03/06 19:00:06;;;;;;;17.12;12.15;;;14.80;82.10;;;;;;10792923;33;20017;-73
2023/03/06 19:06:10;;;;;;;17.73;12.60;;;14.60;82.10;;;;;;10778261;33;20032;-73
2023/03/06 19:12:12;;;;;;;20.90;13.38;;;14.40;81.80;;;;;;10790739;33;20025;-72
2023/03/06 19:18:16;;;;;;;18.87;13.90;;;14.30;81.70;;;;;;10777343;33;20036;-73
2023/03/06 19:24:19;;;;;;;19.52;16.20;;;14.20;81.90;;;;;;10787859;33;20020;-73
2023/03/06 19:30:24;;;;;;;21.52;16.98;;;14.30;82.30;;;;;;10772868;33;20362;-73
2023/03/06 19:36:29;;;;;;;23.10;17.92;;;14.20;82.00;;;;;;10790759;33;20094;-73
2023/03/06 19:42:31;;;;;;;25.83;20.23;;;14.20;81.90;;;;;;10790874;33;20020;-73
2023/03/06 19:48:33;;;;;;;30.83;24.45;;;14.20;81.90;;;;;;10789966;33;20025;-73
2023/03/06 19:54:36;;;;;;;18.92;15.10;;;14.20;82.00;;;;;;10772669;33;20044;-73
2023/03/06 20:00:38;;;;;;;20.05;14.80;;;14.20;81.70;;;;;;10790068;33;20025;-73
2023/03/06 20:06:40;;;;;;;16.35;12.32;;;14.00;81.60;;;;;;10790460;33;20391;-73
2023/03/06 20:12:42;;;;;;;23.52;16.70;;;13.90;81.60;;;;;;10789968;33;20025;-73
2023/03/06 20:18:45;;;;;;;18.40;14.70;;;13.80;81.50;;;;;;10777118;32;20062;-73
2023/03/06 20:24:47;;;;;;;17.75;12.30;;;13.70;81.50;;;;;;10774141;33;20432;-70
2023/03/06 20:30:49;;;;;;;16.40;10.88;;;13.70;81.30;;;;;;10776885;32;20390;-71
2023/03/06 20:36:51;;;;;;;29.65;25.15;;;13.60;81.40;;;;;;10763061;33;20033;-70
2023/03/06 20:42:53;;;;;;;18.17;14.18;;;13.70;81.80;;;;;;10790129;33;20047;-71
2023/03/06 20:48:57;;;;;;;19.62;15.18;;;13.20;82.20;;;;;;10788466;33;20189;-71
2023/03/06 20:54:59;;;;;;;24.80;18.08;;;13.20;82.30;;;;;;10772274;33;20043;-71
2023/03/06 21:01:01;;;;;;;23.08;15.07;;;13.10;82.70;;;;;;10770449;32;20051;-70
2023/03/06 21:07:03;;;;;;;26.45;17.20;;;13.20;82.80;;;;;;10762894;33;20032;-71
2023/03/06 21:13:05;;;;;;;21.25;14.87;;;13.30;82.50;;;;;;10788097;33;20016;-70
2023/03/06 21:19:09;;;;;;;21.30;17.67;;;13.20;82.20;;;;;;10788484;33;20028;-71
2023/03/06 21:25:11;;;;;;;25.02;18.52;;;13.20;82.30;;;;;;10774045;33;20289;-70
2023/03/06 21:31:16;;;;;;;19.77;17.70;;;13.20;82.60;;;;;;10775379;32;20047;-71
2023/03/06 21:37:17;;;;;;;24.00;16.12;;;13.10;82.40;;;;;;10787566;33;20024;-70
2023/03/06 21:43:20;;;;;;;22.83;20.02;;;12.80;82.40;;;;;;10788013;33;20279;-70
2023/03/06 21:49:24;;;;;;;22.70;17.55;;;12.80;83.10;;;;;;10789610;33;20008;-70
2023/03/06 21:55:26;;;;;;;19.12;16.12;;;12.80;82.60;;;;;;10793271;33;20056;-70
2023/03/06 22:01:29;;;;;;;23.77;15.43;;;12.70;82.30;;;;;;10793453;33;20017;-70
2023/03/06 22:07:35;;;;;;;20.27;16.95;;;12.70;82.40;;;;;;10793888;33;20046;-70
2023/03/06 22:13:37;;;;;;;20.40;15.25;;;12.70;82.30;;;;;;10790489;33;20052;-70
2023/03/06 22:19:39;;;;;;;17.00;13.73;;;12.70;82.20;;;;;;10792990;33;20029;-71
2023/03/06 22:25:41;;;;;;;16.35;11.77;;;12.70;82.50;;;;;;10791555;33;20017;-71
2023/03/06 22:31:44;;;;;;;18.58;14.32;;;12.50;82.50;;;;;;10793205;33;20398;-70
2023/03/06 22:37:46;;;;;;;30.67;22.50;;;12.20;83.00;;;;;;10791716;33;20028;-70
2023/03/06 22:43:48;;;;;;;18.35;13.48;;;12.20;82.70;;;;;;10792256;33;20059;-71
2023/03/06 22:49:50;;;;;;;21.30;17.02;;;12.30;82.50;;;;;;10793336;33;20016;-71
2023/03/06 22:55:51;;;;;;;19.87;14.30;;;12.40;82.20;;;;;;10779234;32;20028;-71
2023/03/06 23:01:54;;;;;;;15.65;12.05;;;12.30;82.50;;;;;;10791172;33;20020;-71
2023/03/06 23:07:56;;;;;;;13.35;10.00;;;12.30;82.60;;;;;;10791648;33;20044;-71
2023/03/06 23:13:58;;;;;;;15.15;9.15;;;12.20;82.60;;;;;;10779068;32;20054;-71
2023/03/06 23:20:19;;;;;;;14.82;9.10;;;12.10;82.70;;;;;;10791871;33;20028;-70
2023/03/06 23:26:39;;;;;;;13.25;10.18;;;12.10;82.60;;;;;;10791834;33;20323;-71
2023/03/06 23:32:41;;;;;;;12.52;9.02;;;11.90;82.80;;;;;;10778233;32;20051;-70
2023/03/06 23:38:44;;;;;;;9.80;7.90;;;12.00;82.60;;;;;;10791776;33;20024;-71
2023/03/06 23:44:46;;;;;;;14.02;9.85;;;12.10;82.50;;;;;;10774888;33;20051;-70
2023/03/06 23:50:49;;;;;;;14.15;10.20;;;12.20;82.20;;;;;;10764601;33;20032;-70
2023/03/06 23:56:51;;;;;;;12.07;8.95;;;12.10;82.00;;;;;;10790752;33;20327;-71
